sensor_id;sensor_type;location;lat;lon;timestamp;P1;durP1;ratioP1;P2;durP2;ratioP2
12271;SDS011;6198;51.446;6.698;2022-08-30T00:00:42;7.03;;;3.93;;
12271;SDS011;6198;51.446;6.698;2022-08-30T00:03:27;10.13;;;4.07;;
12271;SDS011;6198;51.446;6.698;2022-08-30T00:05:53;7.13;;;3.90;;
12271;SDS011;6198;51.446;6.698;2022-08-30T00:08:19;8.80;;;4.47;;
12271;SDS011;6198;51.446;6.698;2022-08-30T00:10:45;10.17;;;3.77;;
12271;SDS011;6198;51.446;6.698;2022-08-30T00:13:12;10.13;;;4.57;;
12271;SDS011;6198;51.446;6.698;2022-08-30T00:15:39;8.73;;;4.30;;
12271;SDS011;6198;51.446;6.698;2022-08-30T00:18:06;7.47;;;3.40;;
12271;SDS011;6198;51.446;6.698;2022-08-30T00:20:32;6.53;;;3.83;;
12271;SDS011;6198;51.446;6.698;2022-08-30T00:22:59;8.40;;;4.17;;
12271;SDS011;6198;51.446;6.698;2022-08-30T00:25:25;6.30;;;3.40;;
12271;SDS011;6198;51.446;6.698;2022-08-30T00:27:51;6.53;;;3.60;;
12271;SDS011;6198;51.446;6.698;2022-08-30T00:30:18;5.63;;;3.60;;
12271;SDS011;6198;51.446;6.698;2022-08-30T00:32:44;6.43;;;3.47;;
12271;SDS011;6198;51.446;6.698;2022-08-30T00:35:11;5.37;;;3.20;;
12271;SDS011;6198;51.446;6.698;2022-08-30T00:37:37;6.03;;;3.60;;
12271;SDS011;6198;51.446;6.698;2022-08-30T00:40:03;4.47;;;3.23;;
12271;SDS011;6198;51.446;6.698;2022-08-30T00:42:30;8.03;;;3.60;;
12271;SDS011;6198;51.446;6.698;2022-08-30T00:44:57;3.60;;;3.10;;
12271;SDS011;6198;51.446;6.698;2022-08-30T00:47:23;9.20;;;3.50;;
12271;SDS011;6198;51.446;6.698;2022-08-30T00:49:52;6.27;;;3.40;;
12271;SDS011;6198;51.446;6.698;2022-08-30T00:52:19;6.47;;;3.43;;
12271;SDS011;6198;51.446;6.698;2022-08-30T00:54:46;4.17;;;3.40;;
12271;SDS011;6198;51.446;6.698;2022-08-30T00:57:13;3.97;;;2.60;;
12271;SDS011;6198;51.446;6.698;2022-08-30T00:59:40;6.77;;;3.37;;
12271;SDS011;6198;51.446;6.698;2022-08-30T01:02:06;5.37;;;3.13;;
12271;SDS011;6198;51.446;6.698;2022-08-30T01:04:32;4.40;;;3.10;;
12271;SDS011;6198;51.446;6.698;2022-08-30T01:06:58;5.07;;;3.30;;
12271;SDS011;6198;51.446;6.698;2022-08-30T01:09:24;5.17;;;3.07;;
12271;SDS011;6198;51.446;6.698;2022-08-30T01:11:50;4.87;;;2.90;;
12271;SDS011;6198;51.446;6.698;2022-08-30T01:14:17;5.30;;;3.23;;
12271;SDS011;6198;51.446;6.698;2022-08-30T01:16:45;3.43;;;2.90;;
12271;SDS011;6198;51.446;6.698;2022-08-30T01:19:16;4.87;;;2.80;;
12271;SDS011;6198;51.446;6.698;2022-08-30T01:21:47;3.80;;;3.20;;
12271;SDS011;6198;51.446;6.698;2022-08-30T01:24:14;4.60;;;3.10;;
12271;SDS011;6198;51.446;6.698;2022-08-30T01:26:41;3.63;;;3.00;;
12271;SDS011;6198;51.446;6.698;2022-08-30T01:29:09;4.03;;;3.20;;
12271;SDS011;6198;51.446;6.698;2022-08-30T01:31:35;4.07;;;2.63;;
12271;SDS011;6198;51.446;6.698;2022-08-30T01:34:02;5.67;;;2.60;;
12271;SDS011;6198;51.446;6.698;2022-08-30T01:36:31;5.20;;;3.20;;
12271;SDS011;6198;51.446;6.698;2022-08-30T01:38:58;10.53;;;3.47;;
12271;SDS011;6198;51.446;6.698;2022-08-30T01:41:25;3.87;;;2.90;;
12271;SDS011;6198;51.446;6.698;2022-08-30T01:43:53;4.43;;;3.00;;
12271;SDS011;6198;51.446;6.698;2022-08-30T01:46:20;4.77;;;2.80;;
12271;SDS011;6198;51.446;6.698;2022-08-30T01:48:48;5.27;;;2.93;;
12271;SDS011;6198;51.446;6.698;2022-08-30T01:51:14;10.17;;;3.70;;
12271;SDS011;6198;51.446;6.698;2022-08-30T01:53:41;6.93;;;3.73;;
12271;SDS011;6198;51.446;6.698;2022-08-30T01:56:07;4.07;;;2.90;;
12271;SDS011;6198;51.446;6.698;2022-08-30T01:58:34;4.43;;;3.17;;
12271;SDS011;6198;51.446;6.698;2022-08-30T02:01:01;3.30;;;2.73;;
12271;SDS011;6198;51.446;6.698;2022-08-30T02:03:28;4.53;;;3.30;;
12271;SDS011;6198;51.446;6.698;2022-08-30T02:06:02;5.83;;;3.50;;
12271;SDS011;6198;51.446;6.698;2022-08-30T02:08:28;7.10;;;4.63;;
12271;SDS011;6198;51.446;6.698;2022-08-30T02:10:54;11.27;;;5.73;;
12271;SDS011;6198;51.446;6.698;2022-08-30T02:13:21;8.73;;;6.07;;
12271;SDS011;6198;51.446;6.698;2022-08-30T02:15:47;7.37;;;5.40;;
12271;SDS011;6198;51.446;6.698;2022-08-30T02:18:13;8.77;;;5.10;;
12271;SDS011;6198;51.446;6.698;2022-08-30T02:20:39;9.00;;;4.50;;
12271;SDS011;6198;51.446;6.698;2022-08-30T02:23:05;8.13;;;3.97;;
12271;SDS011;6198;51.446;6.698;2022-08-30T02:25:31;5.17;;;3.23;;
12271;SDS011;6198;51.446;6.698;2022-08-30T02:27:57;4.63;;;3.33;;
12271;SDS011;6198;51.446;6.698;2022-08-30T02:30:23;6.37;;;3.57;;
12271;SDS011;6198;51.446;6.698;2022-08-30T02:32:49;4.33;;;3.00;;
12271;SDS011;6198;51.446;6.698;2022-08-30T02:35:15;4.87;;;3.80;;
12271;SDS011;6198;51.446;6.698;2022-08-30T02:37:41;5.03;;;3.13;;
12271;SDS011;6198;51.446;6.698;2022-08-30T02:40:07;5.87;;;3.60;;
12271;SDS011;6198;51.446;6.698;2022-08-30T02:42:34;4.27;;;3.43;;
12271;SDS011;6198;51.446;6.698;2022-08-30T02:45:00;4.70;;;3.30;;
12271;SDS011;6198;51.446;6.698;2022-08-30T02:47:26;4.87;;;3.47;;
12271;SDS011;6198;51.446;6.698;2022-08-30T02:49:51;4.50;;;3.20;;
12271;SDS011;6198;51.446;6.698;2022-08-30T02:52:18;5.30;;;3.70;;
12271;SDS011;6198;51.446;6.698;2022-08-30T02:54:44;7.53;;;3.23;;
12271;SDS011;6198;51.446;6.698;2022-08-30T02:57:10;4.10;;;3.40;;
12271;SDS011;6198;51.446;6.698;2022-08-30T02:59:37;8.53;;;3.90;;
12271;SDS011;6198;51.446;6.698;2022-08-30T03:02:08;10.27;;;3.53;;
12271;SDS011;6198;51.446;6.698;2022-08-30T03:04:34;4.00;;;3.40;;
12271;SDS011;6198;51.446;6.698;2022-08-30T03:07:00;6.00;;;3.27;;
12271;SDS011;6198;51.446;6.698;2022-08-30T03:09:26;4.03;;;3.60;;
12271;SDS011;6198;51.446;6.698;2022-08-30T03:11:52;4.27;;;3.50;;
12271;SDS011;6198;51.446;6.698;2022-08-30T03:14:17;5.30;;;3.83;;
12271;SDS011;6198;51.446;6.698;2022-08-30T03:16:44;4.73;;;3.60;;
12271;SDS011;6198;51.446;6.698;2022-08-30T03:19:10;6.27;;;4.13;;
12271;SDS011;6198;51.446;6.698;2022-08-30T03:21:36;5.20;;;3.73;;
12271;SDS011;6198;51.446;6.698;2022-08-30T03:24:02;7.43;;;3.83;;
12271;SDS011;6198;51.446;6.698;2022-08-30T03:26:28;6.70;;;4.23;;
12271;SDS011;6198;51.446;6.698;2022-08-30T03:28:54;10.63;;;3.77;;
12271;SDS011;6198;51.446;6.698;2022-08-30T03:31:20;4.13;;;3.47;;
12271;SDS011;6198;51.446;6.698;2022-08-30T03:33:46;5.23;;;3.20;;
12271;SDS011;6198;51.446;6.698;2022-08-30T03:36:12;4.00;;;3.13;;
12271;SDS011;6198;51.446;6.698;2022-08-30T03:38:38;3.80;;;3.47;;
12271;SDS011;6198;51.446;6.698;2022-08-30T03:41:04;4.00;;;3.30;;
12271;SDS011;6198;51.446;6.698;2022-08-30T03:43:30;7.53;;;3.30;;
12271;SDS011;6198;51.446;6.698;2022-08-30T03:45:57;6.33;;;3.63;;
12271;SDS011;6198;51.446;6.698;2022-08-30T03:48:24;6.23;;;3.37;;
12271;SDS011;6198;51.446;6.698;2022-08-30T03:50:50;4.83;;;3.60;;
12271;SDS011;6198;51.446;6.698;2022-08-30T03:53:16;4.93;;;3.77;;
12271;SDS011;6198;51.446;6.698;2022-08-30T03:55:42;6.17;;;3.97;;
12271;SDS011;6198;51.446;6.698;2022-08-30T03:58:08;4.87;;;3.80;;
12271;SDS011;6198;51.446;6.698;2022-08-30T04:00:34;5.77;;;4.07;;
12271;SDS011;6198;51.446;6.698;2022-08-30T04:03:00;6.33;;;4.50;;
12271;SDS011;6198;51.446;6.698;2022-08-30T04:05:26;4.47;;;4.07;;
12271;SDS011;6198;51.446;6.698;2022-08-30T04:07:52;8.07;;;3.90;;
12271;SDS011;6198;51.446;6.698;2022-08-30T04:10:18;5.13;;;4.23;;
12271;SDS011;6198;51.446;6.698;2022-08-30T04:12:47;8.90;;;4.33;;
12271;SDS011;6198;51.446;6.698;2022-08-30T04:15:14;6.33;;;4.67;;
12271;SDS011;6198;51.446;6.698;2022-08-30T04:17:40;5.30;;;3.87;;
12271;SDS011;6198;51.446;6.698;2022-08-30T04:20:06;5.30;;;3.93;;
12271;SDS011;6198;51.446;6.698;2022-08-30T04:22:32;11.13;;;5.33;;
12271;SDS011;6198;51.446;6.698;2022-08-30T04:24:58;8.23;;;5.30;;
12271;SDS011;6198;51.446;6.698;2022-08-30T04:27:24;11.20;;;6.90;;
12271;SDS011;6198;51.446;6.698;2022-08-30T04:29:50;11.70;;;6.93;;
12271;SDS011;6198;51.446;6.698;2022-08-30T04:32:18;6.87;;;6.13;;
12271;SDS011;6198;51.446;6.698;2022-08-30T04:34:44;8.90;;;6.07;;
12271;SDS011;6198;51.446;6.698;2022-08-30T04:37:10;8.53;;;5.10;;
12271;SDS011;6198;51.446;6.698;2022-08-30T04:39:36;10.53;;;5.70;;
12271;SDS011;6198;51.446;6.698;2022-08-30T04:42:02;6.80;;;4.67;;
12271;SDS011;6198;51.446;6.698;2022-08-30T04:44:30;5.67;;;5.00;;
12271;SDS011;6198;51.446;6.698;2022-08-30T04:46:56;6.27;;;4.73;;
12271;SDS011;6198;51.446;6.698;2022-08-30T04:49:23;9.33;;;4.90;;
12271;SDS011;6198;51.446;6.698;2022-08-30T04:51:49;7.10;;;5.27;;
12271;SDS011;6198;51.446;6.698;2022-08-30T04:54:14;9.17;;;5.40;;
12271;SDS011;6198;51.446;6.698;2022-08-30T04:56:40;7.67;;;5.60;;
12271;SDS011;6198;51.446;6.698;2022-08-30T04:59:07;6.93;;;5.03;;
12271;SDS011;6198;51.446;6.698;2022-08-30T05:01:34;9.27;;;5.00;;
12271;SDS011;6198;51.446;6.698;2022-08-30T05:04:00;9.80;;;5.13;;
12271;SDS011;6198;51.446;6.698;2022-08-30T05:06:27;11.00;;;5.70;;
12271;SDS011;6198;51.446;6.698;2022-08-30T05:08:55;11.37;;;5.23;;
12271;SDS011;6198;51.446;6.698;2022-08-30T05:11:22;6.17;;;4.37;;
12271;SDS011;6198;51.446;6.698;2022-08-30T05:13:48;6.00;;;5.00;;
12271;SDS011;6198;51.446;6.698;2022-08-30T05:16:14;8.13;;;5.10;;
12271;SDS011;6198;51.446;6.698;2022-08-30T05:18:45;12.07;;;6.03;;
12271;SDS011;6198;51.446;6.698;2022-08-30T05:23:38;9.30;;;5.30;;
12271;SDS011;6198;51.446;6.698;2022-08-30T05:26:07;6.57;;;5.27;;
12271;SDS011;6198;51.446;6.698;2022-08-30T05:28:34;6.90;;;5.17;;
12271;SDS011;6198;51.446;6.698;2022-08-30T05:31:00;7.80;;;5.50;;
12271;SDS011;6198;51.446;6.698;2022-08-30T05:33:26;5.63;;;4.53;;
12271;SDS011;6198;51.446;6.698;2022-08-30T05:35:52;13.10;;;5.30;;
12271;SDS011;6198;51.446;6.698;2022-08-30T05:38:18;10.67;;;5.17;;
12271;SDS011;6198;51.446;6.698;2022-08-30T05:40:44;8.67;;;5.37;;
12271;SDS011;6198;51.446;6.698;2022-08-30T05:43:10;6.30;;;4.73;;
12271;SDS011;6198;51.446;6.698;2022-08-30T05:45:38;7.23;;;4.90;;
12271;SDS011;6198;51.446;6.698;2022-08-30T05:48:04;5.43;;;4.77;;
12271;SDS011;6198;51.446;6.698;2022-08-30T05:50:30;8.53;;;4.90;;
12271;SDS011;6198;51.446;6.698;2022-08-30T05:52:56;9.40;;;4.73;;
12271;SDS011;6198;51.446;6.698;2022-08-30T05:55:22;7.47;;;5.13;;
12271;SDS011;6198;51.446;6.698;2022-08-30T05:57:48;7.07;;;5.43;;
12271;SDS011;6198;51.446;6.698;2022-08-30T06:00:15;10.37;;;5.10;;
12271;SDS011;6198;51.446;6.698;2022-08-30T06:02:42;8.23;;;5.07;;
12271;SDS011;6198;51.446;6.698;2022-08-30T06:05:09;8.90;;;5.37;;
12271;SDS011;6198;51.446;6.698;2022-08-30T06:07:35;5.50;;;4.97;;
12271;SDS011;6198;51.446;6.698;2022-08-30T06:10:02;6.33;;;5.33;;
12271;SDS011;6198;51.446;6.698;2022-08-30T06:12:28;10.23;;;5.23;;
12271;SDS011;6198;51.446;6.698;2022-08-30T06:14:54;9.90;;;5.30;;
12271;SDS011;6198;51.446;6.698;2022-08-30T06:17:20;12.30;;;5.93;;
12271;SDS011;6198;51.446;6.698;2022-08-30T06:19:46;6.87;;;4.80;;
12271;SDS011;6198;51.446;6.698;2022-08-30T06:22:12;7.17;;;5.30;;
12271;SDS011;6198;51.446;6.698;2022-08-30T06:24:38;9.40;;;5.10;;
12271;SDS011;6198;51.446;6.698;2022-08-30T06:27:04;5.10;;;4.67;;
12271;SDS011;6198;51.446;6.698;2022-08-30T06:29:30;6.97;;;5.00;;
12271;SDS011;6198;51.446;6.698;2022-08-30T06:31:56;15.53;;;5.77;;
12271;SDS011;6198;51.446;6.698;2022-08-30T06:34:23;7.73;;;5.23;;
12271;SDS011;6198;51.446;6.698;2022-08-30T06:36:48;9.40;;;5.50;;
12271;SDS011;6198;51.446;6.698;2022-08-30T06:39:14;9.90;;;5.00;;
12271;SDS011;6198;51.446;6.698;2022-08-30T06:41:41;8.50;;;5.80;;
12271;SDS011;6198;51.446;6.698;2022-08-30T06:44:07;6.50;;;5.40;;
12271;SDS011;6198;51.446;6.698;2022-08-30T06:46:34;6.13;;;5.10;;
12271;SDS011;6198;51.446;6.698;2022-08-30T06:49:00;5.30;;;4.80;;
12271;SDS011;6198;51.446;6.698;2022-08-30T06:51:28;8.67;;;5.57;;
12271;SDS011;6198;51.446;6.698;2022-08-30T06:53:55;9.30;;;5.70;;
12271;SDS011;6198;51.446;6.698;2022-08-30T06:56:21;7.33;;;5.13;;
12271;SDS011;6198;51.446;6.698;2022-08-30T06:58:48;8.57;;;5.50;;
12271;SDS011;6198;51.446;6.698;2022-08-30T07:01:14;9.37;;;5.40;;
12271;SDS011;6198;51.446;6.698;2022-08-30T07:03:40;7.23;;;5.13;;
12271;SDS011;6198;51.446;6.698;2022-08-30T07:06:07;8.27;;;6.13;;
12271;SDS011;6198;51.446;6.698;2022-08-30T07:08:33;9.17;;;5.10;;
12271;SDS011;6198;51.446;6.698;2022-08-30T07:10:59;10.50;;;5.47;;
12271;SDS011;6198;51.446;6.698;2022-08-30T07:13:26;9.90;;;4.73;;
12271;SDS011;6198;51.446;6.698;2022-08-30T07:15:52;7.37;;;5.23;;
12271;SDS011;6198;51.446;6.698;2022-08-30T07:18:19;9.37;;;4.73;;
12271;SDS011;6198;51.446;6.698;2022-08-30T07:21:08;5.53;;;4.73;;
12271;SDS011;6198;51.446;6.698;2022-08-30T07:23:35;7.93;;;5.40;;
12271;SDS011;6198;51.446;6.698;2022-08-30T07:26:02;7.43;;;4.87;;
12271;SDS011;6198;51.446;6.698;2022-08-30T07:28:29;9.50;;;5.10;;
12271;SDS011;6198;51.446;6.698;2022-08-30T07:30:55;5.50;;;5.00;;
12271;SDS011;6198;51.446;6.698;2022-08-30T07:33:21;8.17;;;4.13;;
12271;SDS011;6198;51.446;6.698;2022-08-30T07:35:47;9.43;;;4.93;;
12271;SDS011;6198;51.446;6.698;2022-08-30T07:38:13;9.03;;;5.07;;
12271;SDS011;6198;51.446;6.698;2022-08-30T07:40:39;9.10;;;5.10;;
12271;SDS011;6198;51.446;6.698;2022-08-30T07:43:05;23.03;;;5.33;;
12271;SDS011;6198;51.446;6.698;2022-08-30T07:45:31;14.37;;;5.07;;
12271;SDS011;6198;51.446;6.698;2022-08-30T07:47:58;6.40;;;4.63;;
12271;SDS011;6198;51.446;6.698;2022-08-30T07:50:24;12.30;;;5.63;;
12271;SDS011;6198;51.446;6.698;2022-08-30T07:52:50;7.07;;;4.47;;
12271;SDS011;6198;51.446;6.698;2022-08-30T07:55:16;8.87;;;4.27;;
12271;SDS011;6198;51.446;6.698;2022-08-30T07:57:42;8.77;;;4.40;;
12271;SDS011;6198;51.446;6.698;2022-08-30T08:00:08;8.17;;;4.70;;
12271;SDS011;6198;51.446;6.698;2022-08-30T08:02:34;6.50;;;3.60;;
12271;SDS011;6198;51.446;6.698;2022-08-30T08:05:02;9.07;;;4.23;;
12271;SDS011;6198;51.446;6.698;2022-08-30T08:07:29;5.83;;;4.67;;
12271;SDS011;6198;51.446;6.698;2022-08-30T08:09:55;5.80;;;4.23;;
12271;SDS011;6198;51.446;6.698;2022-08-30T08:12:22;8.03;;;4.43;;
12271;SDS011;6198;51.446;6.698;2022-08-30T08:14:48;6.33;;;3.97;;
12271;SDS011;6198;51.446;6.698;2022-08-30T08:17:14;5.37;;;3.80;;
12271;SDS011;6198;51.446;6.698;2022-08-30T08:19:40;4.40;;;3.50;;
12271;SDS011;6198;51.446;6.698;2022-08-30T08:22:06;7.03;;;4.20;;
12271;SDS011;6198;51.446;6.698;2022-08-30T08:24:32;8.00;;;4.00;;
12271;SDS011;6198;51.446;6.698;2022-08-30T08:26:58;8.90;;;3.63;;
12271;SDS011;6198;51.446;6.698;2022-08-30T08:29:24;4.43;;;3.17;;
12271;SDS011;6198;51.446;6.698;2022-08-30T08:31:52;5.33;;;3.77;;
12271;SDS011;6198;51.446;6.698;2022-08-30T08:34:17;5.67;;;3.43;;
12271;SDS011;6198;51.446;6.698;2022-08-30T08:36:47;9.13;;;3.87;;
12271;SDS011;6198;51.446;6.698;2022-08-30T08:39:13;3.63;;;2.87;;
12271;SDS011;6198;51.446;6.698;2022-08-30T08:41:42;3.60;;;3.30;;
12271;SDS011;6198;51.446;6.698;2022-08-30T08:47:10;3.40;;;3.10;;
12271;SDS011;6198;51.446;6.698;2022-08-30T08:49:37;4.13;;;2.80;;
12271;SDS011;6198;51.446;6.698;2022-08-30T08:52:04;6.73;;;3.27;;
12271;SDS011;6198;51.446;6.698;2022-08-30T08:54:56;4.10;;;3.33;;
12271;SDS011;6198;51.446;6.698;2022-08-30T08:57:23;6.03;;;3.47;;
12271;SDS011;6198;51.446;6.698;2022-08-30T08:59:50;7.20;;;2.90;;
12271;SDS011;6198;51.446;6.698;2022-08-30T09:02:22;9.03;;;3.80;;
12271;SDS011;6198;51.446;6.698;2022-08-30T09:04:48;5.57;;;3.30;;
12271;SDS011;6198;51.446;6.698;2022-08-30T09:07:49;3.93;;;2.97;;
12271;SDS011;6198;51.446;6.698;2022-08-30T09:10:08;7.10;;;3.07;;
12271;SDS011;6198;51.446;6.698;2022-08-30T09:12:34;3.50;;;2.90;;
12271;SDS011;6198;51.446;6.698;2022-08-30T09:15:14;5.70;;;2.97;;
12271;SDS011;6198;51.446;6.698;2022-08-30T09:17:49;13.37;;;2.93;;
12271;SDS011;6198;51.446;6.698;2022-08-30T09:22:53;3.73;;;2.60;;
12271;SDS011;6198;51.446;6.698;2022-08-30T09:27:49;5.70;;;2.67;;
12271;SDS011;6198;51.446;6.698;2022-08-30T09:35:17;3.97;;;2.50;;
12271;SDS011;6198;51.446;6.698;2022-08-30T09:37:54;4.33;;;2.37;;
12271;SDS011;6198;51.446;6.698;2022-08-30T09:40:55;3.07;;;2.67;;
12271;SDS011;6198;51.446;6.698;2022-08-30T09:48:29;5.37;;;3.07;;
12271;SDS011;6198;51.446;6.698;2022-08-30T09:53:47;5.07;;;2.60;;
12271;SDS011;6198;51.446;6.698;2022-08-30T09:56:20;3.03;;;2.20;;
12271;SDS011;6198;51.446;6.698;2022-08-30T10:01:15;2.80;;;2.50;;
12271;SDS011;6198;51.446;6.698;2022-08-30T10:03:54;3.13;;;2.40;;
12271;SDS011;6198;51.446;6.698;2022-08-30T10:06:29;4.50;;;2.50;;
12271;SDS011;6198;51.446;6.698;2022-08-30T10:11:55;2.90;;;2.40;;
12271;SDS011;6198;51.446;6.698;2022-08-30T10:14:28;3.07;;;2.70;;
12271;SDS011;6198;51.446;6.698;2022-08-30T10:22:03;3.37;;;2.80;;
12271;SDS011;6198;51.446;6.698;2022-08-30T10:24:49;7.00;;;2.60;;
12271;SDS011;6198;51.446;6.698;2022-08-30T10:27:20;3.23;;;2.40;;
12271;SDS011;6198;51.446;6.698;2022-08-30T10:29:54;2.80;;;2.20;;
12271;SDS011;6198;51.446;6.698;2022-08-30T10:32:25;7.10;;;2.73;;
12271;SDS011;6198;51.446;6.698;2022-08-30T10:34:56;3.53;;;2.53;;
12271;SDS011;6198;51.446;6.698;2022-08-30T10:37:26;2.90;;;2.40;;
12271;SDS011;6198;51.446;6.698;2022-08-30T10:39:57;4.67;;;2.83;;
12271;SDS011;6198;51.446;6.698;2022-08-30T10:42:26;4.60;;;2.00;;
12271;SDS011;6198;51.446;6.698;2022-08-30T10:45:10;4.27;;;2.53;;
12271;SDS011;6198;51.446;6.698;2022-08-30T10:50:15;4.30;;;2.60;;
12271;SDS011;6198;51.446;6.698;2022-08-30T10:55:25;3.20;;;2.50;;
12271;SDS011;6198;51.446;6.698;2022-08-30T10:57:51;3.87;;;2.80;;
12271;SDS011;6198;51.446;6.698;2022-08-30T11:00:23;5.97;;;2.27;;
12271;SDS011;6198;51.446;6.698;2022-08-30T11:06:19;5.77;;;2.43;;
12271;SDS011;6198;51.446;6.698;2022-08-30T11:11:03;7.50;;;2.83;;
12271;SDS011;6198;51.446;6.698;2022-08-30T11:13:31;5.87;;;2.33;;
12271;SDS011;6198;51.446;6.698;2022-08-30T11:16:10;3.53;;;2.37;;
12271;SDS011;6198;51.446;6.698;2022-08-30T11:19:00;4.40;;;2.10;;
12271;SDS011;6198;51.446;6.698;2022-08-30T11:21:36;3.90;;;2.50;;
12271;SDS011;6198;51.446;6.698;2022-08-30T11:24:07;4.53;;;2.13;;
12271;SDS011;6198;51.446;6.698;2022-08-30T11:31:57;2.97;;;2.50;;
12271;SDS011;6198;51.446;6.698;2022-08-30T11:37:09;3.70;;;2.40;;
12271;SDS011;6198;51.446;6.698;2022-08-30T11:44:36;8.43;;;2.70;;
12271;SDS011;6198;51.446;6.698;2022-08-30T11:47:36;2.90;;;2.30;;
12271;SDS011;6198;51.446;6.698;2022-08-30T11:50:00;2.73;;;2.27;;
12271;SDS011;6198;51.446;6.698;2022-08-30T12:00:29;3.17;;;2.00;;
12271;SDS011;6198;51.446;6.698;2022-08-30T12:02:58;4.60;;;2.33;;
12271;SDS011;6198;51.446;6.698;2022-08-30T12:08:07;6.10;;;2.60;;
12271;SDS011;6198;51.446;6.698;2022-08-30T12:10:38;6.77;;;2.57;;
12271;SDS011;6198;51.446;6.698;2022-08-30T12:13:05;3.33;;;2.20;;
12271;SDS011;6198;51.446;6.698;2022-08-30T12:18:17;2.13;;;1.97;;
12271;SDS011;6198;51.446;6.698;2022-08-30T12:20:55;7.07;;;2.20;;
12271;SDS011;6198;51.446;6.698;2022-08-30T12:23:29;3.60;;;1.97;;
12271;SDS011;6198;51.446;6.698;2022-08-30T12:28:35;2.90;;;2.40;;
12271;SDS011;6198;51.446;6.698;2022-08-30T12:31:18;2.47;;;2.20;;
12271;SDS011;6198;51.446;6.698;2022-08-30T12:33:46;3.93;;;2.37;;
12271;SDS011;6198;51.446;6.698;2022-08-30T12:36:13;3.27;;;2.53;;
12271;SDS011;6198;51.446;6.698;2022-08-30T12:38:40;3.80;;;2.30;;
12271;SDS011;6198;51.446;6.698;2022-08-30T12:41:06;4.63;;;2.70;;
12271;SDS011;6198;51.446;6.698;2022-08-30T12:43:36;3.33;;;2.60;;
12271;SDS011;6198;51.446;6.698;2022-08-30T12:46:04;3.07;;;2.20;;
12271;SDS011;6198;51.446;6.698;2022-08-30T12:48:36;2.97;;;2.47;;
12271;SDS011;6198;51.446;6.698;2022-08-30T12:51:04;4.10;;;2.40;;
12271;SDS011;6198;51.446;6.698;2022-08-30T12:53:35;5.10;;;2.30;;
12271;SDS011;6198;51.446;6.698;2022-08-30T13:06:47;3.77;;;2.63;;
12271;SDS011;6198;51.446;6.698;2022-08-30T13:09:26;3.00;;;2.30;;
12271;SDS011;6198;51.446;6.698;2022-08-30T13:11:53;4.90;;;2.40;;
12271;SDS011;6198;51.446;6.698;2022-08-30T13:16:49;3.13;;;2.83;;
12271;SDS011;6198;51.446;6.698;2022-08-30T13:19:30;6.70;;;2.50;;
12271;SDS011;6198;51.446;6.698;2022-08-30T13:21:57;5.23;;;3.10;;
12271;SDS011;6198;51.446;6.698;2022-08-30T13:24:23;2.80;;;2.50;;
12271;SDS011;6198;51.446;6.698;2022-08-30T13:26:49;2.63;;;2.43;;
12271;SDS011;6198;51.446;6.698;2022-08-30T13:29:17;2.93;;;2.73;;
12271;SDS011;6198;51.446;6.698;2022-08-30T13:31:44;2.70;;;2.50;;
12271;SDS011;6198;51.446;6.698;2022-08-30T13:34:10;3.83;;;2.53;;
12271;SDS011;6198;51.446;6.698;2022-08-30T13:36:38;6.13;;;2.90;;
12271;SDS011;6198;51.446;6.698;2022-08-30T13:39:08;5.13;;;2.93;;
12271;SDS011;6198;51.446;6.698;2022-08-30T13:41:36;4.67;;;2.20;;
12271;SDS011;6198;51.446;6.698;2022-08-30T13:44:02;3.87;;;2.50;;
12271;SDS011;6198;51.446;6.698;2022-08-30T13:46:29;2.70;;;2.40;;
12271;SDS011;6198;51.446;6.698;2022-08-30T13:49:05;4.47;;;2.80;;
12271;SDS011;6198;51.446;6.698;2022-08-30T13:51:31;4.37;;;2.73;;
12271;SDS011;6198;51.446;6.698;2022-08-30T13:53:57;4.80;;;2.40;;
12271;SDS011;6198;51.446;6.698;2022-08-30T13:56:24;4.53;;;2.37;;
12271;SDS011;6198;51.446;6.698;2022-08-30T13:58:55;3.13;;;2.40;;
12271;SDS011;6198;51.446;6.698;2022-08-30T14:01:21;5.30;;;2.70;;
12271;SDS011;6198;51.446;6.698;2022-08-30T14:03:47;3.03;;;2.53;;
12271;SDS011;6198;51.446;6.698;2022-08-30T14:06:13;6.23;;;2.77;;
12271;SDS011;6198;51.446;6.698;2022-08-30T14:08:39;3.13;;;2.60;;
12271;SDS011;6198;51.446;6.698;2022-08-30T14:11:05;3.30;;;2.30;;
12271;SDS011;6198;51.446;6.698;2022-08-30T14:13:31;3.97;;;2.57;;
12271;SDS011;6198;51.446;6.698;2022-08-30T14:15:59;2.77;;;2.33;;
12271;SDS011;6198;51.446;6.698;2022-08-30T14:18:25;4.10;;;2.70;;
12271;SDS011;6198;51.446;6.698;2022-08-30T14:20:51;3.47;;;2.70;;
12271;SDS011;6198;51.446;6.698;2022-08-30T14:23:18;2.60;;;2.33;;
12271;SDS011;6198;51.446;6.698;2022-08-30T14:25:44;4.07;;;2.33;;
12271;SDS011;6198;51.446;6.698;2022-08-30T14:28:10;4.60;;;2.43;;
12271;SDS011;6198;51.446;6.698;2022-08-30T14:30:36;4.43;;;2.77;;
12271;SDS011;6198;51.446;6.698;2022-08-30T14:33:02;4.40;;;2.67;;
12271;SDS011;6198;51.446;6.698;2022-08-30T14:35:28;4.03;;;2.83;;
12271;SDS011;6198;51.446;6.698;2022-08-30T14:37:54;3.23;;;2.43;;
12271;SDS011;6198;51.446;6.698;2022-08-30T14:40:21;2.87;;;2.60;;
12271;SDS011;6198;51.446;6.698;2022-08-30T14:42:47;5.03;;;3.07;;
12271;SDS011;6198;51.446;6.698;2022-08-30T14:45:13;5.83;;;2.80;;
12271;SDS011;6198;51.446;6.698;2022-08-30T14:47:39;4.33;;;2.40;;
12271;SDS011;6198;51.446;6.698;2022-08-30T14:50:05;2.50;;;2.30;;
12271;SDS011;6198;51.446;6.698;2022-08-30T14:52:31;4.33;;;2.10;;
12271;SDS011;6198;51.446;6.698;2022-08-30T14:54:58;3.73;;;2.10;;
12271;SDS011;6198;51.446;6.698;2022-08-30T14:57:24;5.33;;;2.43;;
12271;SDS011;6198;51.446;6.698;2022-08-30T14:59:50;3.33;;;2.20;;
12271;SDS011;6198;51.446;6.698;2022-08-30T15:02:16;2.77;;;2.50;;
12271;SDS011;6198;51.446;6.698;2022-08-30T15:04:42;5.33;;;2.50;;
12271;SDS011;6198;51.446;6.698;2022-08-30T15:07:08;4.43;;;2.33;;
12271;SDS011;6198;51.446;6.698;2022-08-30T15:09:34;3.30;;;2.40;;
12271;SDS011;6198;51.446;6.698;2022-08-30T15:12:00;7.00;;;2.63;;
12271;SDS011;6198;51.446;6.698;2022-08-30T15:14:27;2.70;;;2.30;;
12271;SDS011;6198;51.446;6.698;2022-08-30T15:16:55;3.50;;;2.47;;
12271;SDS011;6198;51.446;6.698;2022-08-30T15:19:22;5.87;;;2.30;;
12271;SDS011;6198;51.446;6.698;2022-08-30T15:21:48;6.03;;;2.50;;
12271;SDS011;6198;51.446;6.698;2022-08-30T15:24:16;3.70;;;2.40;;
12271;SDS011;6198;51.446;6.698;2022-08-30T15:26:43;3.03;;;2.23;;
12271;SDS011;6198;51.446;6.698;2022-08-30T15:29:10;2.97;;;2.67;;
12271;SDS011;6198;51.446;6.698;2022-08-30T15:31:36;3.57;;;2.40;;
12271;SDS011;6198;51.446;6.698;2022-08-30T15:34:04;4.60;;;2.93;;
12271;SDS011;6198;51.446;6.698;2022-08-30T15:36:30;2.73;;;2.47;;
12271;SDS011;6198;51.446;6.698;2022-08-30T15:38:56;2.77;;;2.40;;
12271;SDS011;6198;51.446;6.698;2022-08-30T15:41:24;2.80;;;2.50;;
12271;SDS011;6198;51.446;6.698;2022-08-30T15:43:50;3.37;;;2.47;;
12271;SDS011;6198;51.446;6.698;2022-08-30T15:48:49;3.80;;;2.40;;
12271;SDS011;6198;51.446;6.698;2022-08-30T15:51:15;2.53;;;2.17;;
12271;SDS011;6198;51.446;6.698;2022-08-30T15:53:42;2.93;;;2.60;;
12271;SDS011;6198;51.446;6.698;2022-08-30T15:56:09;2.70;;;2.30;;
12271;SDS011;6198;51.446;6.698;2022-08-30T15:58:35;5.83;;;2.40;;
12271;SDS011;6198;51.446;6.698;2022-08-30T16:01:01;4.43;;;2.67;;
12271;SDS011;6198;51.446;6.698;2022-08-30T16:03:29;5.53;;;2.57;;
12271;SDS011;6198;51.446;6.698;2022-08-30T16:05:55;2.70;;;2.40;;
12271;SDS011;6198;51.446;6.698;2022-08-30T16:08:21;3.37;;;2.30;;
12271;SDS011;6198;51.446;6.698;2022-08-30T16:10:47;4.20;;;2.50;;
12271;SDS011;6198;51.446;6.698;2022-08-30T16:13:13;2.50;;;2.23;;
12271;SDS011;6198;51.446;6.698;2022-08-30T16:15:39;3.40;;;2.40;;
12271;SDS011;6198;51.446;6.698;2022-08-30T16:18:07;3.73;;;2.53;;
12271;SDS011;6198;51.446;6.698;2022-08-30T16:20:33;3.73;;;2.43;;
12271;SDS011;6198;51.446;6.698;2022-08-30T16:22:59;2.70;;;2.43;;
12271;SDS011;6198;51.446;6.698;2022-08-30T16:25:25;3.20;;;2.30;;
12271;SDS011;6198;51.446;6.698;2022-08-30T16:27:52;3.27;;;2.53;;
12271;SDS011;6198;51.446;6.698;2022-08-30T16:30:18;4.50;;;2.20;;
12271;SDS011;6198;51.446;6.698;2022-08-30T16:32:44;2.50;;;2.30;;